Time;durP1;ratioP1;P1;durP2;ratioP2;P2;SDS_P1;SDS_P2;PMS_P1;PMS_P2;Temp;Humidity;BMP_temperature;BMP_pressure;BME280_temperature;BME280_humidity;BME280_pressure;Samples;Min_cycle;Max_cycle;Signal;HPM_P1;HPM_P2
2022/07/26 00:01:27;;;;;;;7.27;4.13;;;;;;;19.84;50.53;100196.77;124783;1099;104253;-77
2022/07/26 00:03:58;;;;;;;10.57;4.07;;;;;;;19.81;49.40;100201.24;124775;1099;104249;-77
2022/07/26 00:06:30;;;;;;;10.87;4.20;;;;;;;19.76;50.16;100201.23;124846;1098;104255;-77
2022/07/26 00:09:01;;;;;;;13.13;4.43;;;;;;;19.72;50.07;100197.69;124747;1099;104322;-77
2022/07/26 00:11:33;;;;;;;9.67;4.13;;;;;;;19.67;50.32;100194.19;124789;1099;104332;-77
2022/07/26 00:14:06;;;;;;;6.23;3.70;;;;;;;19.64;50.46;100194.20;124777;1099;102766;-77
2022/07/26 00:16:39;;;;;;;7.93;3.80;;;;;;;19.60;50.78;100196.89;124805;1099;102274;-77
2022/07/26 00:19:10;;;;;;;7.00;4.07;;;;;;;19.56;50.63;100201.36;124803;1099;104159;-76
2022/07/26 00:21:41;;;;;;;9.63;4.43;;;;;;;19.52;50.56;100202.27;124834;1099;102931;-77
2022/07/26 00:24:13;;;;;;;12.03;4.27;;;;;;;19.48;51.31;100200.53;124786;1099;104240;-77
2022/07/26 00:26:45;;;;;;;8.73;4.03;;;;;;;19.45;51.18;100193.44;124835;1099;102791;-77
2022/07/26 00:29:18;;;;;;;11.43;4.50;;;;;;;19.42;50.72;100197.91;124666;1099;104253;-77
2022/07/26 00:31:49;;;;;;;12.63;4.75;;;;;;;19.36;51.41;100194.36;124815;1099;104256;-77
2022/07/26 00:34:21;;;;;;;10.03;3.97;;;;;;;19.32;51.65;100192.63;124825;1099;104236;-77
2022/07/26 00:36:52;;;;;;;9.03;4.20;;;;;;;19.29;51.19;100191.73;124767;1099;104322;-78
2022/07/26 00:39:24;;;;;;;7.57;4.07;;;;;;;19.26;51.40;100197.98;124844;1099;104159;-77
2022/07/26 00:41:55;;;;;;;8.00;4.10;;;;;;;19.24;51.57;100189.09;124773;1099;104201;-77
2022/07/26 00:44:36;;;;;;;8.20;4.07;;;;;;;19.23;51.59;100192.67;124785;1099;104363;-77
2022/07/26 00:47:07;;;;;;;7.90;4.33;;;;;;;19.20;51.40;100190.03;124807;1098;104287;-77
2022/07/26 00:49:43;;;;;;;12.35;4.10;;;;;;;19.17;52.04;100193.58;124772;1099;104405;-76
2022/07/26 00:52:16;;;;;;;9.17;4.23;;;;;;;19.10;52.19;100183.84;124811;1099;104248;-77
2022/07/26 00:54:47;;;;;;;11.73;4.50;;;;;;;19.07;52.42;100190.95;124811;1099;104294;-77
2022/07/26 00:57:21;;;;;;;7.80;4.50;;;;;;;18.99;52.42;100178.56;124841;1099;104258;-76
2022/07/26 00:59:53;;;;;;;11.10;5.33;;;;;;;18.97;52.37;100180.36;124802;1099;102017;-76
2022/07/26 01:02:27;;;;;;;10.70;4.20;;;;;;;18.97;52.56;100179.48;124817;1098;104389;-77
2022/07/26 01:04:59;;;;;;;11.07;4.23;;;;;;;18.98;52.54;100178.57;124804;1098;101809;-77
2022/07/26 01:07:31;;;;;;;9.53;4.73;;;;;;;18.90;53.02;100173.31;124804;1099;101864;-77
2022/07/26 01:10:04;;;;;;;10.20;4.43;;;;;;;18.84;53.24;100173.30;124787;1099;102759;-77
2022/07/26 01:12:36;;;;;;;7.50;4.10;;;;;;;18.77;53.00;100171.54;124809;1099;104233;-77
2022/07/26 01:15:09;;;;;;;9.47;4.07;;;;;;;18.72;53.07;100166.23;124756;1098;104194;-77
2022/07/26 01:17:41;;;;;;;11.30;4.55;;;;;;;18.72;53.56;100173.34;124847;1099;104217;-77
2022/07/26 01:20:14;;;;;;;8.57;4.37;;;;;;;18.70;53.50;100170.69;124792;1099;104631;-77
2022/07/26 01:22:46;;;;;;;8.93;4.37;;;;;;;18.69;53.82;100160.93;124774;1099;104255;-77
2022/07/26 01:25:28;;;;;;;7.97;3.87;;;;;;;18.70;53.26;100168.03;124866;1099;104265;-77
2022/07/26 01:28:00;;;;;;;10.00;4.13;;;;;;;18.65;53.38;100161.81;124761;1099;104348;-76
2022/07/26 01:30:32;;;;;;;9.83;4.63;;;;;;;18.63;53.92;100169.80;124799;1099;104180;-76
2022/07/26 01:33:04;;;;;;;9.85;4.55;;;;;;;18.59;54.12;100168.05;124786;1098;102187;-76
2022/07/26 01:35:35;;;;;;;9.40;4.30;;;;;;;18.56;54.04;100161.84;124721;1097;104201;-77
2022/07/26 01:38:07;;;;;;;10.70;4.80;;;;;;;18.50;54.04;100162.76;124690;1099;102250;-77
2022/07/26 01:40:39;;;;;;;7.43;4.27;;;;;;;18.48;54.18;100156.54;125599;1099;104389;-77
2022/07/26 01:43:13;;;;;;;10.20;4.13;;;;;;;18.48;54.14;100157.45;125762;1099;104163;-77
2022/07/26 01:45:44;;;;;;;9.97;4.60;;;;;;;18.45;54.91;100164.52;124832;1099;104201;-77
2022/07/26 01:48:16;;;;;;;8.43;4.13;;;;;;;18.42;54.52;100159.24;124765;1099;104235;-77
2022/07/26 01:50:47;;;;;;;11.83;4.00;;;;;;;18.40;54.78;100155.68;124892;1099;104255;-76
2022/07/26 01:53:21;;;;;;;10.10;4.33;;;;;;;18.40;55.01;100155.68;124773;1099;104086;-77
2022/07/26 01:55:52;;;;;;;10.87;4.70;;;;;;;18.40;54.72;100151.27;124796;1099;104823;-77
2022/07/26 01:58:24;;;;;;;8.50;4.20;;;;;;;18.42;54.94;100148.62;124859;1099;104225;-77
2022/07/26 02:00:55;;;;;;;8.03;4.30;;;;;;;18.39;55.09;100153.94;124872;1099;104159;-77
2022/07/26 02:03:27;;;;;;;7.83;4.20;;;;;;;18.37;55.22;100161.00;124833;1099;104220;-77
2022/07/26 02:05:58;;;;;;;10.50;4.03;;;;;;;18.36;55.05;100159.25;124770;1099;104270;-77
2022/07/26 02:08:30;;;;;;;8.10;4.47;;;;;;;18.37;55.15;100166.31;124791;1098;102826;-77
2022/07/26 02:11:02;;;;;;;9.57;4.43;;;;;;;18.35;55.69;100165.44;124802;1099;104338;-76
2022/07/26 02:13:35;;;;;;;8.57;4.17;;;;;;;18.32;55.38;100163.66;124790;1098;102274;-77
2022/07/26 02:16:10;;;;;;;14.25;4.40;;;;;;;18.26;55.73;100156.61;124752;1099;104229;-78
2022/07/26 02:18:42;;;;;;;9.40;4.20;;;;;;;18.25;55.47;100159.27;124856;1099;102758;-77
2022/07/26 02:21:13;;;;;;;10.35;4.50;;;;;;;18.27;55.32;100160.14;124817;1099;104177;-77
2022/07/26 02:23:44;;;;;;;11.90;4.40;;;;;;;18.31;55.47;100159.26;124774;1099;104220;-77
2022/07/26 02:26:17;;;;;;;9.57;4.00;;;;;;;18.31;55.49;100159.26;124736;1099;102804;-77
2022/07/26 02:28:49;;;;;;;11.65;4.10;;;;;;;18.30;55.94;100161.01;124761;1099;104222;-77
2022/07/26 02:31:20;;;;;;;11.97;4.30;;;;;;;18.26;56.02;100164.58;124694;1099;104166;-77
2022/07/26 02:33:52;;;;;;;9.90;4.30;;;;;;;18.20;55.74;100161.02;124751;1099;102562;-77
2022/07/26 02:36:23;;;;;;;10.27;4.30;;;;;;;18.13;56.19;100158.37;124795;1099;104220;-77
2022/07/26 02:38:56;;;;;;;12.93;4.53;;;;;;;18.09;56.04;100158.37;124775;1099;104275;-77
2022/07/26 02:41:28;;;;;;;10.40;4.07;;;;;;;18.04;56.56;100158.37;124395;1099;102271;-78
2022/07/26 02:43:59;;;;;;;10.27;4.27;;;;;;;18.01;56.42;100152.19;124744;1099;104342;-77
2022/07/26 02:46:31;;;;;;;9.77;4.30;;;;;;;17.94;56.71;100151.31;124800;1099;104210;-77
2022/07/26 02:49:02;;;;;;;8.00;4.20;;;;;;;17.88;57.26;100146.88;124880;1099;104278;-77
2022/07/26 02:51:34;;;;;;;11.27;4.20;;;;;;;17.81;57.07;100144.19;124792;1099;104230;-76
2022/07/26 02:54:06;;;;;;;9.47;4.30;;;;;;;17.77;57.20;100148.61;124833;1099;104234;-77
2022/07/26 02:56:37;;;;;;;10.70;4.23;;;;;;;17.73;57.06;100152.14;124798;1099;104169;-77
2022/07/26 02:59:09;;;;;;;7.40;4.10;;;;;;;17.69;57.83;100145.95;124834;1099;104217;-77
2022/07/26 03:01:40;;;;;;;11.40;4.43;;;;;;;17.69;57.21;100153.04;124832;1099;104165;-77
2022/07/26 03:04:12;;;;;;;8.43;4.33;;;;;;;17.64;57.31;100150.38;124788;1099;104204;-77
2022/07/26 03:06:43;;;;;;;9.17;4.27;;;;;;;17.65;57.56;100148.60;124819;1099;104300;-77
2022/07/26 03:09:14;;;;;;;9.43;4.40;;;;;;;17.71;57.97;100156.57;124797;1099;102785;-77
2022/07/26 03:11:48;;;;;;;11.57;4.33;;;;;;;17.68;57.84;100164.53;124833;1099;101854;-77
2022/07/26 03:14:19;;;;;;;11.35;4.53;;;;;;;17.65;57.49;100156.56;124790;1099;104191;-77
2022/07/26 03:16:54;;;;;;;13.00;4.37;;;;;;;17.60;57.80;100160.08;124327;1099;102067;-77
2022/07/26 03:19:25;;;;;;;11.37;4.40;;;;;;;17.58;58.39;100159.20;124850;1099;102720;-76
2022/07/26 03:22:01;;;;;;;10.20;4.30;;;;;;;17.55;58.21;100158.33;124719;1099;104072;-77
2022/07/26 03:24:33;;;;;;;7.23;4.20;;;;;;;17.54;58.71;100153.89;124751;1099;104239;-77
2022/07/26 03:27:05;;;;;;;8.40;4.03;;;;;;;17.51;58.21;100162.72;124320;1099;104223;-77
2022/07/26 03:29:36;;;;;;;12.37;4.30;;;;;;;17.51;58.83;100153.88;124767;1099;102238;-77
2022/07/26 03:32:08;;;;;;;9.73;4.13;;;;;;;17.51;58.82;100149.45;124801;1099;102941;-78
2022/07/26 03:34:40;;;;;;;11.00;4.37;;;;;;;17.53;58.26;100154.77;124780;1099;104080;-76
2022/07/26 03:37:11;;;;;;;10.37;4.30;;;;;;;17.56;58.46;100162.73;124865;1099;104201;-76
2022/07/26 03:39:43;;;;;;;11.07;3.77;;;;;;;17.59;58.36;100155.68;124817;1099;102957;-77
2022/07/26 03:42:15;;;;;;;8.33;4.17;;;;;;;17.64;58.37;100158.34;124743;1099;102798;-77
2022/07/26 03:44:46;;;;;;;7.93;4.10;;;;;;;17.69;58.27;100156.57;124834;1099;104331;-77
2022/07/26 03:47:17;;;;;;;13.73;3.73;;;;;;;17.72;58.31;100153.92;124822;1099;104392;-77
2022/07/26 03:49:49;;;;;;;10.07;3.90;;;;;;;17.79;58.77;100154.80;124831;1099;104201;-77
2022/07/26 03:52:21;;;;;;;12.33;4.30;;;;;;;17.85;58.43;100152.15;124818;1099;104226;-77
2022/07/26 03:54:52;;;;;;;8.83;3.70;;;;;;;17.88;58.39;100153.93;124878;1097;104249;-78
2022/07/26 03:57:23;;;;;;;11.23;4.10;;;;;;;17.92;58.45;100147.75;124832;1099;102858;-77
2022/07/26 03:59:55;;;;;;;13.57;4.77;;;;;;;17.93;58.28;100145.09;124787;1098;102277;-76
2022/07/26 04:02:28;;;;;;;14.10;4.23;;;;;;;17.96;58.29;100158.37;124811;1099;104153;-75
2022/07/26 04:05:00;;;;;;;12.13;4.50;;;;;;;18.00;58.43;100150.41;124820;1098;103624;-76
2022/07/26 04:07:32;;;;;;;9.33;3.97;;;;;;;18.04;58.50;100149.53;124827;1099;104242;-76
2022/07/26 04:10:04;;;;;;;9.47;3.83;;;;;;;18.08;58.10;100153.97;124768;1099;104243;-76
2022/07/26 04:12:36;;;;;;;10.73;4.27;;;;;;;18.14;58.32;100156.62;124743;1099;104169;-76
2022/07/26 04:15:09;;;;;;;6.87;3.53;;;;;;;18.20;58.16;100148.64;124779;1098;104173;-76
2022/07/26 04:17:41;;;;;;;9.50;4.00;;;;;;;18.25;58.07;100141.55;124807;1099;104288;-76
2022/07/26 04:20:14;;;;;;;9.37;4.03;;;;;;;18.29;58.17;100148.63;124826;1099;104261;-76
2022/07/26 04:22:45;;;;;;;7.70;3.63;;;;;;;18.38;57.66;100142.41;124860;1097;102973;-76
2022/07/26 04:25:17;;;;;;;10.73;3.87;;;;;;;18.46;58.01;100140.60;124764;1099;103317;-76
2022/07/26 04:27:49;;;;;;;10.57;3.80;;;;;;;18.54;57.76;100140.59;124832;1098;104191;-75
2022/07/26 04:30:26;;;;;;;11.83;4.13;;;;;;;18.64;57.53;100144.12;124791;1099;104178;-76
2022/07/26 04:32:57;;;;;;;9.53;3.70;;;;;;;18.68;57.47;100143.20;125376;1099;104207;-76
2022/07/26 04:35:29;;;;;;;6.57;3.67;;;;;;;18.66;57.36;100142.34;124746;1099;102835;-77
2022/07/26 04:38:02;;;;;;;8.33;3.70;;;;;;;18.63;57.13;100137.91;124748;1098;102830;-79
2022/07/26 04:40:34;;;;;;;8.03;3.77;;;;;;;18.67;57.18;100141.45;124758;1099;104172;-76
2022/07/26 04:43:05;;;;;;;7.20;3.70;;;;;;;18.73;57.48;100137.88;124751;1099;104191;-76
2022/07/26 04:45:37;;;;;;;11.00;3.67;;;;;;;18.81;57.31;100147.60;124750;1099;104293;-77
2022/07/26 04:48:09;;;;;;;8.70;4.07;;;;;;;18.86;57.65;100143.17;124754;1099;117796;-76
2022/07/26 04:50:41;;;;;;;8.77;3.80;;;;;;;18.91;57.53;100143.16;125597;1099;104175;-77
2022/07/26 04:53:13;;;;;;;7.23;3.47;;;;;;;18.98;56.97;100144.01;124774;1099;104041;-77
2022/07/26 04:55:44;;;;;;;8.87;3.90;;;;;;;19.01;57.16;100144.90;124763;1099;104166;-78
2022/07/26 04:58:16;;;;;;;7.17;3.90;;;;;;;19.04;57.04;100142.23;124797;1099;104169;-77
2022/07/26 05:00:47;;;;;;;7.07;3.40;;;;;;;19.09;56.71;100146.62;124692;1098;104325;-76
2022/07/26 05:03:20;;;;;;;14.37;4.10;;;;;;;19.17;56.62;100147.48;124740;1098;103231;-77
2022/07/26 05:05:58;;;;;;;13.35;3.77;;;;;;;19.24;56.53;100150.98;124860;1099;102756;-77
2022/07/26 05:11:50;;;;;;;6.77;3.80;;;;;;;19.39;56.14;100146.45;125651;1098;104172;-77
2022/07/26 05:14:22;;;;;;;15.30;4.15;;;;;;;19.47;56.51;100146.41;125639;1099;104274;-77
2022/07/26 05:17:09;;;;;;;13.43;3.80;;;;;;;19.56;55.90;100140.16;125603;1099;104166;-77
2022/07/26 05:20:14;;;;;;;19.30;4.37;;;;;;;19.65;56.54;100136.52;125447;1099;104211;-77
2022/07/26 05:26:15;;;;;;;6.00;3.40;;;;;;;19.82;55.74;100139.09;125064;1099;104185;-77
2022/07/26 05:28:50;;;;;;;9.93;3.63;;;;;;;19.88;56.12;100134.63;124812;1099;104233;-78
2022/07/26 05:31:22;;;;;;;8.57;3.80;;;;;;;19.95;55.92;100138.11;124761;1099;104261;-78
2022/07/26 05:33:56;;;;;;;13.10;3.53;;;;;;;20.01;55.22;100135.39;124745;1099;104258;-78
2022/07/26 05:36:31;;;;;;;6.23;3.40;;;;;;;20.07;55.86;100140.67;125643;1099;102781;-78
2022/07/26 05:42:03;;;;;;;7.77;3.63;;;;;;;20.27;55.15;100137.81;125418;1099;104238;-78
2022/07/26 05:44:36;;;;;;;10.82;3.92;;;;;;;20.39;55.34;100133.25;125657;1099;102410;-82
2022/07/26 05:47:22;;;;;;;13.83;3.83;;;;;;;20.48;54.78;100130.49;125646;1099;104061;-78
2022/07/26 05:50:04;;;;;;;15.80;3.80;;;;;;;20.58;54.95;100131.27;124804;1099;104272;-80
2022/07/26 05:55:41;;;;;;;10.77;3.77;;;;;;;20.77;54.65;100127.53;125568;1099;105814;-78
2022/07/26 05:58:19;;;;;;;11.00;3.70;;;;;;;20.87;55.54;100119.42;125527;1099;104258;-79
2022/07/26 06:01:31;;;;;;;;;;;;;;;;;;;;;
2022/07/26 06:07:33;;;;;;;11.60;3.70;;;;;;;21.15;54.21;100110.12;125034;1102;101864;-80
2022/07/26 06:10:41;;;;;;;15.35;4.80;;;;;;;21.26;54.81;100103.77;125378;1099;119358;-78
2022/07/26 06:13:56;;;;;;;12.80;4.10;;;;;;;21.41;54.41;100102.64;125706;1099;102734;-78
2022/07/26 06:16:43;;;;;;;13.47;4.07;;;;;;;21.50;54.25;100098.10;125585;1099;104166;-78
2022/07/26 06:19:20;;;;;;;10.83;3.80;;;;;;;21.61;54.72;100105.91;125602;1099;102881;-80
2022/07/26 06:22:42;;;;;;;;;;;;;;;;;;;;;
2022/07/26 06:26:04;;;;;;;9.70;3.70;;;;;;;21.84;53.78;100100.20;126535;1098;104308;-79
2022/07/26 06:28:50;;;;;;;9.20;3.23;;;;;;;21.95;53.99;100099.14;125643;1099;104322;-78
2022/07/26 06:32:19;;;;;;;10.67;3.30;;;;;;;22.05;53.48;100101.63;126512;1098;102157;-79
2022/07/26 06:35:22;;;;;;;8.30;3.00;;;;;;;22.15;53.30;100088.97;125716;1099;104181;-81
2022/07/26 06:38:13;;;;;;;7.20;2.93;;;;;;;22.26;53.44;100084.30;125722;1099;102314;-80
2022/07/26 06:41:19;;;;;;;;;;;;;;;;;;;;;
2022/07/26 06:44:38;;;;;;;;;;;;;;;;;;;;;
2022/07/26 06:48:13;;;;;;;;;;;;;;;;;;;;;
2022/07/26 06:51:31;;;;;;;;;;;;;;;;;;;;;
2022/07/26 06:54:16;;;;;;;8.17;3.43;;;;;;;22.90;51.96;100078.58;124961;1102;104179;-81
2022/07/26 07:00:26;;;;;;;9.57;3.27;;;;;;;23.18;51.63;100074.45;125139;1102;102295;-80
2022/07/26 07:07:01;;;;;;;;;;;;;;;;;;;;;
2022/07/26 07:12:58;;;;;;;5.47;2.90;;;;;;;23.76;50.75;100067.66;125277;1102;104275;-79
2022/07/26 07:16:13;;;;;;;6.30;2.87;;;;;;;23.90;50.62;100070.02;124810;1102;101982;-78
2022/07/26 07:19:15;;;;;;;6.93;2.90;;;;;;;24.09;50.22;100058.81;124908;1102;102608;-79
2022/07/26 07:26:24;;;;;;;;;;;;;;;;;;;;;
2022/07/26 07:29:44;;;;;;;;;;;;;;;;;;;;;
2022/07/26 07:39:04;;;;;;;9.63;3.10;;;;;;;25.25;47.52;100054.52;124967;1102;104386;-79
2022/07/26 07:42:03;;;;;;;7.37;3.00;;;;;;;25.48;46.72;100043.06;125069;1102;104187;-77
2022/07/26 07:44:49;;;;;;;5.00;2.80;;;;;;;25.65;46.67;100053.25;124979;1102;104197;-78
2022/07/26 07:47:39;;;;;;;6.17;2.80;;;;;;;25.81;46.23;100050.91;124336;1102;103255;-77
2022/07/26 07:50:23;;;;;;;10.20;3.50;;;;;;;26.13;45.42;100056.11;125019;1102;104449;-78
2022/07/26 07:53:08;;;;;;;10.83;3.33;;;;;;;26.35;45.19;100053.52;124961;1102;111658;-79
2022/07/26 07:55:43;;;;;;;8.53;3.17;;;;;;;26.65;44.40;100043.47;125003;1102;104256;-78
2022/07/26 07:58:19;;;;;;;7.75;2.80;;;;;;;26.84;43.62;100037.37;124959;1102;103424;-78
2022/07/26 08:01:00;;;;;;;7.00;2.60;;;;;;;26.95;43.64;100045.03;124265;1102;104329;-78
2022/07/26 08:03:39;;;;;;;5.57;2.50;;;;;;;26.99;43.33;100042.16;125032;1102;104221;-77
2022/07/26 08:06:37;;;;;;;4.10;2.50;;;;;;;27.08;43.03;100036.41;125078;1102;104274;-78
2022/07/26 08:12:12;;;;;;;8.50;2.60;;;;;;;27.33;42.93;100038.15;124957;1102;101957;-78
2022/07/26 08:14:48;;;;;;;4.73;2.53;;;;;;;27.40;41.32;100038.77;125007;1102;104166;-78
2022/07/26 08:18:02;;;;;;;4.40;2.50;;;;;;;27.47;41.69;100026.77;125605;1099;102145;-80
2022/07/26 08:21:09;;;;;;;;;;;;;;;;;;;;;
2022/07/26 08:24:07;;;;;;;4.07;2.43;;;;;;;27.74;40.27;100040.91;125605;1098;104179;-78
2022/07/26 08:27:07;;;;;;;4.97;2.50;;;;;;;27.85;38.83;100039.58;125750;1099;102341;-80
2022/07/26 08:30:01;;;;;;;4.17;2.30;;;;;;;27.98;38.89;100032.72;125708;1099;101852;-80
2022/07/26 08:33:10;;;;;;;2.53;2.30;;;;;;;28.04;38.30;100034.29;125102;1102;102570;-80
2022/07/26 08:35:47;;;;;;;4.70;2.63;;;;;;;28.24;38.29;100039.66;125841;1098;104242;-78
2022/07/26 08:38:59;;;;;;;6.15;2.17;;;;;;;28.32;38.68;100031.22;125633;1099;104224;-79
2022/07/26 08:42:09;;;;;;;6.37;2.67;;;;;;;28.22;38.69;100033.47;125386;1099;104156;-78
2022/07/26 08:45:19;;;;;;;4.27;2.20;;;;;;;28.46;37.41;100025.20;125462;1101;108060;-80
2022/07/26 08:48:24;;;;;;;5.22;2.40;;;;;;;28.69;37.46;100027.72;125029;1102;104400;-79
2022/07/26 08:51:01;;;;;;;;;;;;;;;28.73;37.01;100016.78;125029;1102;103004;-78
2022/07/26 08:53:40;;;;;;;3.13;2.33;;;;;;;28.73;37.35;100014.09;124980;1102;102530;-78
2022/07/26 08:56:13;;;;;;;4.73;2.40;;;;;;;28.78;37.36;100014.73;124997;1102;104520;-79
2022/07/26 09:02:17;;;;;;;2.53;1.97;;;;;;;28.82;36.55;100016.34;125028;1102;102470;-79
2022/07/26 09:05:12;;;;;;;4.03;2.20;;;;;;;28.86;35.66;100023.36;125064;1102;104169;-79
2022/07/26 09:08:10;;;;;;;4.33;2.43;;;;;;;28.89;34.60;100023.22;125005;1103;104195;-79
2022/07/26 09:10:53;;;;;;;4.33;2.40;;;;;;;28.99;34.37;100021.80;125100;1102;104476;-79
2022/07/26 09:14:00;;;;;;;3.73;2.23;;;;;;;29.09;34.50;100010.55;124947;1102;103015;-79
2022/07/26 09:16:42;;;;;;;3.53;2.00;;;;;;;29.14;33.46;100006.69;125032;1101;104223;-79
2022/07/26 09:19:25;;;;;;;4.23;2.90;;;;;;;29.21;33.34;100012.69;125083;1102;102637;-81
2022/07/26 09:22:37;;;;;;;5.40;2.00;;;;;;;29.25;33.07;100008.89;125048;1102;104314;-81
2022/07/26 09:25:25;;;;;;;4.25;2.35;;;;;;;29.14;32.43;99998.59;125731;1099;104156;-81
2022/07/26 09:28:40;;;;;;;2.50;2.20;;;;;;;29.24;32.60;100007.13;125658;1099;104181;-81
2022/07/26 09:31:26;;;;;;;4.10;2.13;;;;;;;29.25;32.33;100007.99;125807;1099;104081;-79
2022/07/26 09:34:31;;;;;;;5.23;2.10;;;;;;;29.16;31.28;100003.91;125781;1099;102284;-81
2022/07/26 09:37:48;;;;;;;2.10;2.00;;;;;;;29.17;31.28;100005.64;125136;1099;104181;-79
2022/07/26 09:40:45;;;;;;;3.83;2.20;;;;;;;29.24;31.47;100006.27;125182;1099;102307;-81
2022/07/26 09:43:23;;;;;;;4.03;2.10;;;;;;;29.29;31.54;100005.06;125070;1099;104130;-78
2022/07/26 09:46:16;;;;;;;2.30;2.10;;;;;;;29.28;30.92;100005.14;125654;1099;104219;-79
2022/07/26 09:49:18;;;;;;;2.13;1.90;;;;;;;29.25;30.81;100008.89;125060;1099;102493;-80
2022/07/26 09:52:24;;;;;;;;;;;;;;;;;;;;;
2022/07/26 09:55:34;;;;;;;2.70;2.10;;;;;;;29.26;31.19;99999.81;125020;1102;104634;-80
2022/07/26 09:58:33;;;;;;;4.57;2.07;;;;;;;29.27;31.31;99993.47;124989;1102;104182;-78
2022/07/26 10:01:29;;;;;;;6.40;2.10;;;;;;;29.39;31.17;99990.16;124954;1102;104064;-79
2022/07/26 10:04:52;;;;;;;;;;;;;;;;;;;;;
2022/07/26 10:07:58;;;;;;;3.93;2.33;;;;;;;29.38;30.10;99990.23;124932;1102;104447;-79
2022/07/26 10:10:54;;;;;;;6.10;2.23;;;;;;;29.36;30.43;99987.61;124839;1102;104193;-78
2022/07/26 10:13:45;;;;;;;;;;;;;;;;;;;;;
2022/07/26 10:16:37;;;;;;;4.10;2.03;;;;;;;29.37;30.27;99983.06;125590;1099;104056;-78
2022/07/26 10:20:00;;;;;;;4.33;2.17;;;;;;;29.42;29.69;99981.03;125671;1099;104169;-77
2022/07/26 10:22:57;;;;;;;2.47;1.90;;;;;;;29.46;29.25;99979.89;125718;1099;104261;-77
2022/07/26 10:25:50;;;;;;;3.53;1.90;;;;;;;29.49;29.55;99977.03;125634;1098;104275;-79
2022/07/26 10:28:50;;;;;;;2.03;1.73;;;;;;;29.48;29.30;99974.41;125175;1099;107637;-79
2022/07/26 10:31:56;;;;;;;3.72;2.02;;;;;;;29.61;29.38;99969.23;125842;1099;102733;-80
2022/07/26 10:38:05;;;;;;;5.80;2.30;;;;;;;29.70;28.41;99964.25;125582;1099;102813;-79
2022/07/26 10:51:54;;;;;;;;;;;;;;;;;;;;;
2022/07/26 10:55:23;;;;;;;4.17;2.00;;;;;;;29.88;28.68;99954.30;124850;1102;104280;-78
2022/07/26 10:58:26;;;;;;;1.87;1.77;;;;;;;29.95;28.43;99952.17;125059;1102;102359;-81
2022/07/26 11:01:38;;;;;;;;;;;;;;;;;;;;;
2022/07/26 11:12:23;;;;;;;;;;;;;;;;;;;;;
2022/07/26 11:15:37;;;;;;;5.43;2.20;;;;;;;30.23;28.16;99931.70;124258;1109;104239;-79
2022/07/26 11:18:39;;;;;;;4.23;2.20;;;;;;;30.34;28.41;99929.30;124202;1109;104492;-83
2022/07/26 11:25:13;;;;;;;;;;;;;;;;;;;;;
2022/07/26 11:28:14;;;;;;;4.57;2.53;;;;;;;30.43;27.95;99923.41;124753;1109;101895;-80
2022/07/26 11:31:10;;;;;;;3.60;2.40;;;;;;;30.52;27.96;99926.55;124521;1109;103965;-80
2022/07/26 11:33:57;;;;;;;5.60;2.33;;;;;;;30.49;27.80;99908.64;124856;1105;104374;-80
2022/07/26 11:40:02;;;;;;;4.77;2.40;;;;;;;30.51;27.14;99914.86;124846;1105;104489;-80
2022/07/26 11:42:44;;;;;;;6.80;2.50;;;;;;;30.41;27.12;99903.66;124925;1106;101811;-79
2022/07/26 11:45:30;;;;;;;5.37;2.60;;;;;;;30.37;27.26;99907.48;124832;1105;101958;-80
2022/07/26 11:48:10;;;;;;;6.43;2.43;;;;;;;30.37;27.46;99906.59;125532;1102;103410;-79
2022/07/26 11:51:18;;;;;;;2.95;2.30;;;;;;;30.37;27.45;99907.48;125118;1102;103517;-78
2022/07/26 11:54:19;;;;;;;5.50;2.30;;;;;;;30.40;27.28;99896.52;125823;1099;102266;-80
2022/07/26 11:57:43;;;;;;;5.07;2.30;;;;;;;30.38;27.32;99886.69;126645;1098;102149;-81
2022/07/26 12:00:25;;;;;;;2.30;2.10;;;;;;;30.40;26.81;99893.81;125237;1099;104604;-80
2022/07/26 12:03:05;;;;;;;3.23;2.30;;;;;;;30.39;26.82;99885.78;124758;1099;102682;-79
2022/07/26 12:06:10;;;;;;;3.37;2.30;;;;;;;30.37;27.01;99883.12;125207;1099;104632;-80
2022/07/26 12:08:53;;;;;;;3.40;2.00;;;;;;;30.39;26.98;99875.81;126621;1098;102255;-79
2022/07/26 12:11:59;;;;;;;4.15;2.10;;;;;;;30.37;26.73;99860.58;126557;1098;104188;-79
2022/07/26 12:15:16;;;;;;;5.03;2.27;;;;;;;30.46;27.04;99860.98;126635;1099;102060;-80
2022/07/26 12:18:26;;;;;;;;;;;;;;;;;;;;;
2022/07/26 12:21:20;;;;;;;3.03;2.10;;;;;;;30.66;26.60;99858.94;125628;1099;102861;-80
2022/07/26 12:24:04;;;;;;;4.63;2.17;;;;;;;30.74;26.92;99845.82;125706;1099;102762;-79
2022/07/26 12:30:47;;;;;;;7.27;2.63;;;;;;;30.77;26.67;99844.78;125227;1099;104239;-79
2022/07/26 12:34:08;;;;;;;11.10;2.90;;;;;;;30.81;26.82;99840.94;125817;1099;104316;-78
2022/07/26 12:37:30;;;;;;;2.87;2.20;;;;;;;30.87;26.44;99829.74;125540;1102;104258;-78
2022/07/26 12:40:34;;;;;;;4.60;2.57;;;;;;;30.99;26.54;99828.15;125106;1102;102558;-79
2022/07/26 12:44:06;;;;;;;;;;;;;;;;;;;;;
2022/07/26 12:47:10;;;;;;;6.03;2.40;;;;;;;31.04;26.13;99825.17;125080;1102;101913;-79
2022/07/26 12:53:53;;;;;;;6.20;2.40;;;;;;;31.09;25.81;99813.10;126000;1102;102317;-81
2022/07/26 12:57:20;;;;;;;;;;;;;;;;;;;;;
2022/07/26 13:00:51;;;;;;;6.15;2.50;;;;;;;31.21;26.09;99814.17;125704;1102;104264;-79
2022/07/26 13:03:53;;;;;;;5.13;2.23;;;;;;;31.22;26.03;99815.06;125850;1102;102195;-79
2022/07/26 13:07:34;;;;;;;2.77;2.23;;;;;;;31.21;25.80;99814.17;125156;1102;104329;-76
2022/07/26 13:10:15;;;;;;;3.90;2.17;;;;;;;31.19;26.05;99816.97;126847;1098;101783;-80
2022/07/26 13:13:23;;;;;;;3.75;2.50;;;;;;;31.21;25.90;99814.17;126749;1099;103232;-81
2022/07/26 13:16:14;;;;;;;4.73;2.40;;;;;;;31.18;25.66;99815.25;125828;1099;102768;-81
2022/07/26 13:19:12;;;;;;;;;;;;;;;;;;;;;
2022/07/26 13:32:31;;;;;;;4.70;2.50;;;;;;;31.19;25.85;99807.98;125481;1102;102497;-82
2022/07/26 13:36:08;;;;;;;;;;;;;;;;;;;;;
2022/07/26 13:39:27;;;;;;;6.03;2.40;;;;;;;31.14;25.69;99794.72;125295;1102;104213;-79
2022/07/26 13:42:24;;;;;;;4.37;2.20;;;;;;;31.18;25.91;99793.57;125125;1102;104223;-81
2022/07/26 13:45:47;;;;;;;3.33;2.60;;;;;;;31.27;25.86;99791.25;125452;1102;102164;-80
2022/07/26 13:48:56;;;;;;;3.90;2.50;;;;;;;31.22;25.55;99790.67;125172;1102;103466;-79
2022/07/26 13:52:07;;;;;;;13.20;2.80;;;;;;;31.19;25.74;99800.72;125179;1105;102375;-80
2022/07/26 13:54:49;;;;;;;7.10;2.50;;;;;;;31.21;25.79;99794.34;125577;1102;102275;-79
2022/07/26 13:57:40;;;;;;;2.90;2.30;;;;;;;31.18;25.47;99795.39;125598;1102;104266;-79
2022/07/26 14:00:40;;;;;;;5.17;2.50;;;;;;;31.15;25.44;99782.92;125127;1101;104220;-79
2022/07/26 14:03:29;;;;;;;2.83;2.30;;;;;;;31.12;25.64;99784.92;124994;1102;104160;-78
2022/07/26 14:06:19;;;;;;;6.73;2.50;;;;;;;31.08;25.64;99777.97;125097;1099;104194;-78
2022/07/26 14:08:58;;;;;;;5.97;2.60;;;;;;;31.06;25.68;99777.20;125001;1099;104290;-78
2022/07/26 14:11:34;;;;;;;5.05;2.60;;;;;;;31.04;25.75;99777.30;124930;1099;103308;-78
2022/07/26 14:14:16;;;;;;;4.20;2.70;;;;;;;31.02;25.75;99778.34;124987;1099;101864;-78
2022/07/26 14:16:55;;;;;;;5.43;2.80;;;;;;;31.02;26.02;99779.20;124273;1099;104617;-78
2022/07/26 14:19:42;;;;;;;6.00;3.07;;;;;;;31.02;25.96;99778.34;125042;1103;104192;-78
2022/07/26 14:22:38;;;;;;;3.50;2.63;;;;;;;31.04;26.17;99771.87;125029;1099;102179;-79
2022/07/26 14:25:21;;;;;;;3.17;2.50;;;;;;;31.08;26.03;99772.55;125724;1099;102181;-78
2022/07/26 14:27:58;;;;;;;6.67;2.90;;;;;;;31.09;25.89;99777.88;125871;1099;104176;-82
2022/07/26 14:30:31;;;;;;;6.90;2.93;;;;;;;31.07;26.00;99777.11;125488;1099;104172;-78
2022/07/26 14:33:25;;;;;;;4.63;2.90;;;;;;;31.04;25.85;99777.30;125232;1099;102791;-79
2022/07/26 14:36:04;;;;;;;4.17;2.60;;;;;;;31.04;26.01;99768.28;125820;1099;102091;-78
2022/07/26 14:38:41;;;;;;;6.40;2.77;;;;;;;31.03;26.03;99770.13;125767;1099;104233;-79